Leander — DD5959 — position and weather

sailwx.info

Track history (hours):
 
Tides and Currents Weather Stations Pressure Air Temp Water Temp Dewpoint Dewpoint Depression Visibility Wind Speed Wind Dir Waves Ship Positions

Leander

Last reported at 2016-Jul-09 13:26 UTC. Time now 2016-Jul-31 00:17 UTC.
Position N 54°30' E 012°37'.
Warning: this ship's position is 21 days out of date.

Length 15 m.

Type: Sailing vessel. MMSI: 211480070.

Date/timePositionNaut miles runAvg speedWind from/ knotsBaromVisibWave heightAir tempDewpointWater temp
2016-Jul-09 13:26N 54°30' E 012°37'7 7.7
2016-Jul-09 12:33N 54°27' E 012°26'9 8.8
2016-Jul-09 11:33N 54°20' E 012°16'11 8.3
2016-Jul-09 10:11N 54°11' E 012°05'  
2016-Jul-01 18:29N 54°11' E 012°05'0 0.0
2016-Jul-01 17:33N 54°11' E 012°05'4 3.5
2016-Jul-01 16:31N 54°14' E 012°07'5 4.7
2016-Jul-01 15:29N 54°18' E 012°11'4 4.0
2016-Jul-01 14:34N 54°19' E 012°17'5 5.4
2016-Jul-01 13:34N 54°23' E 012°24'4 4.3
2016-Jul-01 12:33N 54°27' E 012°23'4 4.1
2016-Jul-01 11:31N 54°30' E 012°28'  
Track history (hours):
 
Tides and Currents Weather Stations Pressure Air Temp Water Temp Dewpoint Dewpoint Depression Visibility Wind Speed Wind Dir Waves Ship Positions

Leander

Last reported at 2016-Jul-09 13:26 UTC. Time now 2016-Jul-31 00:17 UTC.
Position N 54°30' E 012°37'.
Warning: this ship's position is 21 days out of date.

Length 15 m.

Type: Sailing vessel. MMSI: 211480070.

Date/timePositionNaut miles runAvg speedWind from/ knotsBaromVisibWave heightAir tempDewpointWater temp
2016-Jul-09 13:26N 54°30' E 012°37'7 7.7
2016-Jul-09 12:33N 54°27' E 012°26'9 8.8
2016-Jul-09 11:33N 54°20' E 012°16'11 8.3
2016-Jul-09 10:11N 54°11' E 012°05'  
2016-Jul-01 18:29N 54°11' E 012°05'0 0.0
2016-Jul-01 17:33N 54°11' E 012°05'4 3.5
2016-Jul-01 16:31N 54°14' E 012°07'5 4.7
2016-Jul-01 15:29N 54°18' E 012°11'4 4.0
2016-Jul-01 14:34N 54°19' E 012°17'5 5.4
2016-Jul-01 13:34N 54°23' E 012°24'4 4.3
2016-Jul-01 12:33N 54°27' E 012°23'4 4.1
2016-Jul-01 11:31N 54°30' E 012°28'  

Dump ship's entire track history